sensor_id;sensor_type;location;lat;lon;timestamp;P1;durP1;ratioP1;P2;durP2;ratioP2
4692;SDS011;11710;48.024;16.296;2023-05-20T06:04:50;31.50;;;20.53;;
4692;SDS011;11710;48.024;16.296;2023-05-20T06:07:17;25.10;;;21.03;;
4692;SDS011;11710;48.024;16.296;2023-05-20T06:09:44;26.73;;;18.93;;
4692;SDS011;11710;48.024;16.296;2023-05-20T06:12:11;25.60;;;19.17;;
4692;SDS011;11710;48.024;16.296;2023-05-20T06:14:38;26.53;;;20.30;;
4692;SDS011;11710;48.024;16.296;2023-05-20T06:17:06;25.73;;;19.17;;
4692;SDS011;11710;48.024;16.296;2023-05-20T06:19:33;23.70;;;18.50;;
4692;SDS011;11710;48.024;16.296;2023-05-20T06:22:01;23.00;;;17.53;;
4692;SDS011;11710;48.024;16.296;2023-05-20T06:24:28;23.00;;;17.50;;
4692;SDS011;11710;48.024;16.296;2023-05-20T06:26:56;24.97;;;19.07;;
4692;SDS011;11710;48.024;16.296;2023-05-20T06:29:23;21.57;;;17.97;;
4692;SDS011;11710;48.024;16.296;2023-05-20T06:31:50;26.00;;;18.23;;
4692;SDS011;11710;48.024;16.296;2023-05-20T06:34:17;22.20;;;18.80;;
4692;SDS011;11710;48.024;16.296;2023-05-20T06:36:44;26.90;;;19.00;;
4692;SDS011;11710;48.024;16.296;2023-05-20T06:39:13;22.50;;;18.50;;
4692;SDS011;11710;48.024;16.296;2023-05-20T06:41:40;23.90;;;18.33;;
4692;SDS011;11710;48.024;16.296;2023-05-20T06:44:08;21.43;;;17.13;;
4692;SDS011;11710;48.024;16.296;2023-05-20T06:46:36;22.77;;;18.60;;
4692;SDS011;11710;48.024;16.296;2023-05-20T06:49:03;22.37;;;18.60;;
4692;SDS011;11710;48.024;16.296;2023-05-20T06:51:30;22.90;;;18.77;;
4692;SDS011;11710;48.024;16.296;2023-05-20T06:53:57;24.97;;;19.80;;
4692;SDS011;11710;48.024;16.296;2023-05-20T06:56:26;25.57;;;19.10;;
4692;SDS011;11710;48.024;16.296;2023-05-20T06:58:53;27.23;;;18.80;;
4692;SDS011;11710;48.024;16.296;2023-05-20T07:01:21;28.23;;;19.67;;
4692;SDS011;11710;48.024;16.296;2023-05-20T07:03:48;25.30;;;18.90;;
4692;SDS011;11710;48.024;16.296;2023-05-20T07:06:15;24.57;;;20.03;;
4692;SDS011;11710;48.024;16.296;2023-05-20T07:08:43;24.50;;;17.63;;
4692;SDS011;11710;48.024;16.296;2023-05-20T07:11:10;27.63;;;20.10;;
4692;SDS011;11710;48.024;16.296;2023-05-20T07:13:38;24.60;;;18.90;;
4692;SDS011;11710;48.024;16.296;2023-05-20T07:16:06;24.23;;;19.10;;
4692;SDS011;11710;48.024;16.296;2023-05-20T07:18:33;24.70;;;19.43;;
4692;SDS011;11710;48.024;16.296;2023-05-20T07:21:00;25.00;;;20.10;;
4692;SDS011;11710;48.024;16.296;2023-05-20T07:23:27;25.73;;;18.83;;
4692;SDS011;11710;48.024;16.296;2023-05-20T07:25:55;24.47;;;19.47;;
4692;SDS011;11710;48.024;16.296;2023-05-20T07:28:22;23.80;;;19.30;;
4692;SDS011;11710;48.024;16.296;2023-05-20T07:30:50;27.57;;;18.77;;
4692;SDS011;11710;48.024;16.296;2023-05-20T07:33:18;24.50;;;20.00;;
4692;SDS011;11710;48.024;16.296;2023-05-20T07:35:45;25.73;;;19.93;;
4692;SDS011;11710;48.024;16.296;2023-05-20T07:38:13;26.00;;;21.00;;
4692;SDS011;11710;48.024;16.296;2023-05-20T07:40:40;26.73;;;21.00;;
4692;SDS011;11710;48.024;16.296;2023-05-20T07:43:07;27.70;;;20.37;;
4692;SDS011;11710;48.024;16.296;2023-05-20T07:45:35;24.20;;;19.67;;
4692;SDS011;11710;48.024;16.296;2023-05-20T07:48:04;24.13;;;19.60;;
4692;SDS011;11710;48.024;16.296;2023-05-20T07:50:32;26.00;;;19.70;;
4692;SDS011;11710;48.024;16.296;2023-05-20T07:53:00;27.47;;;19.77;;
4692;SDS011;11710;48.024;16.296;2023-05-20T07:55:27;24.00;;;18.77;;
4692;SDS011;11710;48.024;16.296;2023-05-20T07:57:55;24.40;;;18.77;;
4692;SDS011;11710;48.024;16.296;2023-05-20T08:00:22;25.50;;;19.60;;
4692;SDS011;11710;48.024;16.296;2023-05-20T08:02:49;24.07;;;18.23;;
4692;SDS011;11710;48.024;16.296;2023-05-20T08:05:18;21.97;;;17.23;;
4692;SDS011;11710;48.024;16.296;2023-05-20T08:07:46;23.40;;;18.97;;
4692;SDS011;11710;48.024;16.296;2023-05-20T08:10:14;23.60;;;18.13;;
4692;SDS011;11710;48.024;16.296;2023-05-20T08:12:41;19.90;;;17.00;;
4692;SDS011;11710;48.024;16.296;2023-05-20T08:15:09;25.03;;;18.10;;
4692;SDS011;11710;48.024;16.296;2023-05-20T08:17:37;20.93;;;17.00;;
4692;SDS011;11710;48.024;16.296;2023-05-20T08:20:04;20.93;;;17.50;;
4692;SDS011;11710;48.024;16.296;2023-05-20T08:22:35;20.43;;;17.13;;
4692;SDS011;11710;48.024;16.296;2023-05-20T08:25:02;24.30;;;17.80;;
4692;SDS011;11710;48.024;16.296;2023-05-20T08:27:34;24.70;;;19.87;;
4692;SDS011;11710;48.024;16.296;2023-05-20T08:30:01;22.83;;;19.47;;
4692;SDS011;11710;48.024;16.296;2023-05-20T08:32:29;30.27;;;19.03;;
4692;SDS011;11710;48.024;16.296;2023-05-20T08:34:56;26.83;;;21.47;;
4692;SDS011;11710;48.024;16.296;2023-05-20T08:37:26;25.00;;;19.20;;
4692;SDS011;11710;48.024;16.296;2023-05-20T08:39:55;25.17;;;19.63;;
4692;SDS011;11710;48.024;16.296;2023-05-20T08:42:22;24.60;;;19.60;;
4692;SDS011;11710;48.024;16.296;2023-05-20T08:44:51;27.07;;;20.13;;
4692;SDS011;11710;48.024;16.296;2023-05-20T08:47:19;23.50;;;19.00;;
4692;SDS011;11710;48.024;16.296;2023-05-20T08:49:47;23.37;;;19.27;;
4692;SDS011;11710;48.024;16.296;2023-05-20T08:52:14;25.17;;;18.80;;
4692;SDS011;11710;48.024;16.296;2023-05-20T08:54:44;23.57;;;19.57;;
4692;SDS011;11710;48.024;16.296;2023-05-20T08:57:15;24.50;;;18.33;;
4692;SDS011;11710;48.024;16.296;2023-05-20T08:59:44;22.63;;;18.47;;
4692;SDS011;11710;48.024;16.296;2023-05-20T09:02:12;22.47;;;19.03;;
4692;SDS011;11710;48.024;16.296;2023-05-20T09:04:40;22.63;;;18.70;;
4692;SDS011;11710;48.024;16.296;2023-05-20T09:07:07;22.77;;;18.90;;
4692;SDS011;11710;48.024;16.296;2023-05-20T09:09:34;24.37;;;18.30;;
4692;SDS011;11710;48.024;16.296;2023-05-20T09:12:01;21.00;;;18.30;;
4692;SDS011;11710;48.024;16.296;2023-05-20T09:14:30;22.63;;;18.20;;
4692;SDS011;11710;48.024;16.296;2023-05-20T09:16:58;22.67;;;18.73;;
4692;SDS011;11710;48.024;16.296;2023-05-20T09:19:25;24.73;;;17.07;;
4692;SDS011;11710;48.024;16.296;2023-05-20T09:21:52;21.63;;;17.67;;
4692;SDS011;11710;48.024;16.296;2023-05-20T09:24:22;24.57;;;18.13;;
4692;SDS011;11710;48.024;16.296;2023-05-20T09:26:51;25.83;;;19.50;;
4692;SDS011;11710;48.024;16.296;2023-05-20T09:29:18;20.10;;;17.50;;
4692;SDS011;11710;48.024;16.296;2023-05-20T09:31:47;20.60;;;17.50;;
4692;SDS011;11710;48.024;16.296;2023-05-20T09:34:14;20.80;;;17.50;;
4692;SDS011;11710;48.024;16.296;2023-05-20T09:36:42;21.13;;;18.63;;
4692;SDS011;11710;48.024;16.296;2023-05-20T09:39:13;23.27;;;18.27;;
4692;SDS011;11710;48.024;16.296;2023-05-20T09:41:47;23.80;;;19.97;;
4692;SDS011;11710;48.024;16.296;2023-05-20T09:44:23;22.00;;;17.40;;
4692;SDS011;11710;48.024;16.296;2023-05-20T09:46:54;21.77;;;17.87;;
4692;SDS011;11710;48.024;16.296;2023-05-20T09:49:23;24.07;;;19.40;;
4692;SDS011;11710;48.024;16.296;2023-05-20T09:51:52;20.47;;;17.87;;
4692;SDS011;11710;48.024;16.296;2023-05-20T09:54:21;22.10;;;18.67;;
4692;SDS011;11710;48.024;16.296;2023-05-20T09:56:51;21.23;;;18.63;;
4692;SDS011;11710;48.024;16.296;2023-05-20T09:59:21;21.33;;;18.07;;
4692;SDS011;11710;48.024;16.296;2023-05-20T10:01:49;20.20;;;17.53;;
4692;SDS011;11710;48.024;16.296;2023-05-20T10:04:20;20.80;;;18.17;;
4692;SDS011;11710;48.024;16.296;2023-05-20T10:07:06;23.17;;;19.00;;
4692;SDS011;11710;48.024;16.296;2023-05-20T10:09:50;25.90;;;18.27;;
4692;SDS011;11710;48.024;16.296;2023-05-20T10:12:38;21.50;;;17.97;;
4692;SDS011;11710;48.024;16.296;2023-05-20T10:15:15;23.40;;;18.63;;
4692;SDS011;11710;48.024;16.296;2023-05-20T10:17:49;20.23;;;18.13;;
4692;SDS011;11710;48.024;16.296;2023-05-20T10:20:30;19.17;;;16.97;;
4692;SDS011;11710;48.024;16.296;2023-05-20T10:23:02;19.37;;;17.27;;
4692;SDS011;11710;48.024;16.296;2023-05-20T10:25:35;20.90;;;17.67;;
4692;SDS011;11710;48.024;16.296;2023-05-20T10:28:03;23.10;;;17.60;;
4692;SDS011;11710;48.024;16.296;2023-05-20T10:30:33;27.13;;;18.63;;
4692;SDS011;11710;48.024;16.296;2023-05-20T10:33:04;20.97;;;17.93;;
4692;SDS011;11710;48.024;16.296;2023-05-20T10:35:34;20.63;;;17.87;;
4692;SDS011;11710;48.024;16.296;2023-05-20T10:38:10;19.17;;;16.60;;
4692;SDS011;11710;48.024;16.296;2023-05-20T10:40:38;20.10;;;15.40;;
4692;SDS011;11710;48.024;16.296;2023-05-20T10:43:09;20.80;;;16.97;;
4692;SDS011;11710;48.024;16.296;2023-05-20T10:45:46;21.90;;;17.37;;
4692;SDS011;11710;48.024;16.296;2023-05-20T10:48:23;19.57;;;16.67;;
4692;SDS011;11710;48.024;16.296;2023-05-20T10:50:54;20.53;;;16.97;;
4692;SDS011;11710;48.024;16.296;2023-05-20T10:53:23;18.03;;;15.90;;
4692;SDS011;11710;48.024;16.296;2023-05-20T10:55:51;18.70;;;16.70;;
4692;SDS011;11710;48.024;16.296;2023-05-20T10:58:20;22.23;;;16.60;;
4692;SDS011;11710;48.024;16.296;2023-05-20T11:00:49;18.17;;;16.10;;
4692;SDS011;11710;48.024;16.296;2023-05-20T11:03:20;20.33;;;16.87;;
4692;SDS011;11710;48.024;16.296;2023-05-20T11:05:48;21.40;;;17.63;;
4692;SDS011;11710;48.024;16.296;2023-05-20T11:08:17;19.03;;;17.03;;
4692;SDS011;11710;48.024;16.296;2023-05-20T11:10:45;19.90;;;17.60;;
4692;SDS011;11710;48.024;16.296;2023-05-20T11:13:13;18.47;;;16.53;;
4692;SDS011;11710;48.024;16.296;2023-05-20T11:15:42;16.93;;;15.13;;
4692;SDS011;11710;48.024;16.296;2023-05-20T11:18:11;18.53;;;16.37;;
4692;SDS011;11710;48.024;16.296;2023-05-20T11:20:39;17.90;;;15.90;;
4692;SDS011;11710;48.024;16.296;2023-05-20T11:23:10;18.27;;;16.40;;
4692;SDS011;11710;48.024;16.296;2023-05-20T11:25:40;17.40;;;15.57;;
4692;SDS011;11710;48.024;16.296;2023-05-20T11:28:08;17.90;;;16.10;;
4692;SDS011;11710;48.024;16.296;2023-05-20T11:30:39;18.17;;;15.80;;
4692;SDS011;11710;48.024;16.296;2023-05-20T11:33:10;16.50;;;14.90;;
4692;SDS011;11710;48.024;16.296;2023-05-20T11:35:43;17.10;;;15.30;;
4692;SDS011;11710;48.024;16.296;2023-05-20T11:38:12;15.23;;;13.63;;
4692;SDS011;11710;48.024;16.296;2023-05-20T11:40:43;17.60;;;15.70;;
4692;SDS011;11710;48.024;16.296;2023-05-20T11:43:12;17.17;;;15.37;;
4692;SDS011;11710;48.024;16.296;2023-05-20T11:45:41;15.63;;;14.13;;
4692;SDS011;11710;48.024;16.296;2023-05-20T11:48:10;16.10;;;14.50;;
4692;SDS011;11710;48.024;16.296;2023-05-20T11:50:40;16.60;;;14.83;;
4692;SDS011;11710;48.024;16.296;2023-05-20T11:53:09;15.63;;;13.80;;
4692;SDS011;11710;48.024;16.296;2023-05-20T11:55:51;16.67;;;14.10;;
4692;SDS011;11710;48.024;16.296;2023-05-20T11:58:24;15.40;;;13.90;;
4692;SDS011;11710;48.024;16.296;2023-05-20T12:00:55;16.70;;;15.00;;
4692;SDS011;11710;48.024;16.296;2023-05-20T12:03:23;15.50;;;13.93;;
4692;SDS011;11710;48.024;16.296;2023-05-20T12:05:52;15.67;;;14.20;;
4692;SDS011;11710;48.024;16.296;2023-05-20T12:08:22;15.50;;;14.00;;
4692;SDS011;11710;48.024;16.296;2023-05-20T12:10:51;16.70;;;14.13;;
4692;SDS011;11710;48.024;16.296;2023-05-20T12:13:19;14.90;;;13.27;;
4692;SDS011;11710;48.024;16.296;2023-05-20T12:15:56;15.17;;;13.53;;
4692;SDS011;11710;48.024;16.296;2023-05-20T12:18:24;15.70;;;13.90;;
4692;SDS011;11710;48.024;16.296;2023-05-20T12:20:52;16.60;;;14.57;;
4692;SDS011;11710;48.024;16.296;2023-05-20T12:23:20;15.50;;;13.90;;
4692;SDS011;11710;48.024;16.296;2023-05-20T12:25:47;14.53;;;13.10;;
4692;SDS011;11710;48.024;16.296;2023-05-20T12:28:17;17.93;;;14.50;;
4692;SDS011;11710;48.024;16.296;2023-05-20T12:30:44;15.83;;;14.20;;
4692;SDS011;11710;48.024;16.296;2023-05-20T12:33:12;15.43;;;13.93;;
4692;SDS011;11710;48.024;16.296;2023-05-20T12:35:40;17.13;;;14.90;;
4692;SDS011;11710;48.024;16.296;2023-05-20T12:38:08;16.67;;;13.27;;
4692;SDS011;11710;48.024;16.296;2023-05-20T12:40:36;18.20;;;12.60;;
4692;SDS011;11710;48.024;16.296;2023-05-20T12:43:05;12.50;;;11.30;;
4692;SDS011;11710;48.024;16.296;2023-05-20T12:45:34;14.33;;;12.70;;
4692;SDS011;11710;48.024;16.296;2023-05-20T12:48:02;12.13;;;10.93;;
4692;SDS011;11710;48.024;16.296;2023-05-20T12:50:31;12.67;;;11.37;;
4692;SDS011;11710;48.024;16.296;2023-05-20T12:52:59;13.50;;;11.30;;
4692;SDS011;11710;48.024;16.296;2023-05-20T12:55:28;12.40;;;11.20;;
4692;SDS011;11710;48.024;16.296;2023-05-20T12:57:56;12.13;;;10.93;;
4692;SDS011;11710;48.024;16.296;2023-05-20T13:00:24;12.70;;;11.40;;
4692;SDS011;11710;48.024;16.296;2023-05-20T13:02:54;11.90;;;10.70;;
4692;SDS011;11710;48.024;16.296;2023-05-20T13:05:21;13.70;;;11.03;;
4692;SDS011;11710;48.024;16.296;2023-05-20T13:07:49;10.63;;;9.57;;
4692;SDS011;11710;48.024;16.296;2023-05-20T13:10:17;13.13;;;10.20;;
4692;SDS011;11710;48.024;16.296;2023-05-20T13:12:44;11.30;;;10.10;;
4692;SDS011;11710;48.024;16.296;2023-05-20T13:15:12;11.80;;;10.60;;
4692;SDS011;11710;48.024;16.296;2023-05-20T13:17:41;11.80;;;9.90;;
4692;SDS011;11710;48.024;16.296;2023-05-20T13:20:10;11.60;;;10.37;;
4692;SDS011;11710;48.024;16.296;2023-05-20T13:22:38;10.90;;;9.80;;
4692;SDS011;11710;48.024;16.296;2023-05-20T13:25:06;15.37;;;10.20;;
4692;SDS011;11710;48.024;16.296;2023-05-20T13:27:35;11.27;;;10.07;;
4692;SDS011;11710;48.024;16.296;2023-05-20T13:30:02;15.43;;;10.30;;
4692;SDS011;11710;48.024;16.296;2023-05-20T13:32:31;11.53;;;9.87;;
4692;SDS011;11710;48.024;16.296;2023-05-20T13:34:58;11.87;;;10.40;;
4692;SDS011;11710;48.024;16.296;2023-05-20T13:37:27;11.30;;;10.10;;
4692;SDS011;11710;48.024;16.296;2023-05-20T13:39:54;11.50;;;10.40;;
4692;SDS011;11710;48.024;16.296;2023-05-20T13:42:22;12.57;;;11.27;;
4692;SDS011;11710;48.024;16.296;2023-05-20T13:44:49;12.07;;;10.87;;
4692;SDS011;11710;48.024;16.296;2023-05-20T13:47:16;11.50;;;10.30;;
4692;SDS011;11710;48.024;16.296;2023-05-20T13:49:43;11.73;;;10.30;;
4692;SDS011;11710;48.024;16.296;2023-05-20T13:52:11;11.77;;;10.20;;
4692;SDS011;11710;48.024;16.296;2023-05-20T13:54:39;11.10;;;10.00;;
4692;SDS011;11710;48.024;16.296;2023-05-20T13:57:10;11.17;;;10.07;;
4692;SDS011;11710;48.024;16.296;2023-05-20T13:59:38;11.00;;;10.00;;
4692;SDS011;11710;48.024;16.296;2023-05-20T14:02:05;11.87;;;10.67;;
4692;SDS011;11710;48.024;16.296;2023-05-20T14:04:33;10.67;;;9.57;;
4692;SDS011;11710;48.024;16.296;2023-05-20T14:07:03;12.20;;;10.60;;
4692;SDS011;11710;48.024;16.296;2023-05-20T14:09:31;12.07;;;10.50;;
4692;SDS011;11710;48.024;16.296;2023-05-20T14:12:00;14.20;;;10.07;;
4692;SDS011;11710;48.024;16.296;2023-05-20T14:14:27;11.27;;;10.17;;
4692;SDS011;11710;48.024;16.296;2023-05-20T14:16:55;11.73;;;10.53;;
4692;SDS011;11710;48.024;16.296;2023-05-20T14:19:22;11.57;;;10.47;;
4692;SDS011;11710;48.024;16.296;2023-05-20T14:21:49;11.60;;;10.40;;
4692;SDS011;11710;48.024;16.296;2023-05-20T14:24:16;12.77;;;10.40;;
4692;SDS011;11710;48.024;16.296;2023-05-20T14:26:43;10.97;;;9.87;;
4692;SDS011;11710;48.024;16.296;2023-05-20T14:29:12;12.40;;;11.13;;
4692;SDS011;11710;48.024;16.296;2023-05-20T14:31:39;12.10;;;10.00;;
4692;SDS011;11710;48.024;16.296;2023-05-20T14:34:06;13.13;;;10.37;;
4692;SDS011;11710;48.024;16.296;2023-05-20T14:36:34;11.90;;;10.60;;
4692;SDS011;11710;48.024;16.296;2023-05-20T14:39:01;14.10;;;9.93;;
4692;SDS011;11710;48.024;16.296;2023-05-20T14:41:28;10.93;;;9.83;;
4692;SDS011;11710;48.024;16.296;2023-05-20T14:43:55;11.33;;;10.00;;
4692;SDS011;11710;48.024;16.296;2023-05-20T14:46:24;11.63;;;10.00;;
4692;SDS011;11710;48.024;16.296;2023-05-20T14:48:51;11.37;;;10.27;;
4692;SDS011;11710;48.024;16.296;2023-05-20T14:51:18;13.13;;;9.60;;
4692;SDS011;11710;48.024;16.296;2023-05-20T14:53:45;11.90;;;9.67;;
4692;SDS011;11710;48.024;16.296;2023-05-20T14:56:12;10.93;;;9.83;;
4692;SDS011;11710;48.024;16.296;2023-05-20T14:58:40;11.10;;;10.00;;
4692;SDS011;11710;48.024;16.296;2023-05-20T15:01:07;11.93;;;9.63;;
4692;SDS011;11710;48.024;16.296;2023-05-20T15:03:35;10.87;;;9.77;;
4692;SDS011;11710;48.024;16.296;2023-05-20T15:06:03;16.87;;;11.10;;
4692;SDS011;11710;48.024;16.296;2023-05-20T15:08:30;10.90;;;9.80;;
4692;SDS011;11710;48.024;16.296;2023-05-20T15:10:57;11.20;;;10.10;;
4692;SDS011;11710;48.024;16.296;2023-05-20T15:13:24;11.20;;;10.10;;
4692;SDS011;11710;48.024;16.296;2023-05-20T15:15:52;10.53;;;9.43;;
4692;SDS011;11710;48.024;16.296;2023-05-20T15:18:19;12.93;;;10.53;;
4692;SDS011;11710;48.024;16.296;2023-05-20T15:20:48;11.33;;;10.17;;
4692;SDS011;11710;48.024;16.296;2023-05-20T15:23:15;11.87;;;10.00;;
4692;SDS011;11710;48.024;16.296;2023-05-20T15:25:42;11.83;;;10.63;;
4692;SDS011;11710;48.024;16.296;2023-05-20T15:28:09;11.33;;;10.17;;
4692;SDS011;11710;48.024;16.296;2023-05-20T15:30:36;12.73;;;10.43;;
4692;SDS011;11710;48.024;16.296;2023-05-20T15:33:04;11.90;;;10.80;;
4692;SDS011;11710;48.024;16.296;2023-05-20T15:35:31;11.90;;;10.63;;
4692;SDS011;11710;48.024;16.296;2023-05-20T15:38:00;11.60;;;10.37;;
4692;SDS011;11710;48.024;16.296;2023-05-20T15:40:27;12.10;;;10.80;;
4692;SDS011;11710;48.024;16.296;2023-05-20T15:42:55;12.53;;;11.23;;
4692;SDS011;11710;48.024;16.296;2023-05-20T15:45:24;12.63;;;11.10;;
4692;SDS011;11710;48.024;16.296;2023-05-20T15:47:52;14.50;;;10.30;;
4692;SDS011;11710;48.024;16.296;2023-05-20T15:50:19;12.27;;;10.97;;
4692;SDS011;11710;48.024;16.296;2023-05-20T15:52:48;12.50;;;10.37;;
4692;SDS011;11710;48.024;16.296;2023-05-20T15:55:18;13.03;;;11.30;;
4692;SDS011;11710;48.024;16.296;2023-05-20T15:57:48;12.07;;;10.63;;
4692;SDS011;11710;48.024;16.296;2023-05-20T16:00:16;14.13;;;10.07;;
4692;SDS011;11710;48.024;16.296;2023-05-20T16:02:45;11.83;;;10.53;;
4692;SDS011;11710;48.024;16.296;2023-05-20T16:05:12;14.57;;;10.90;;
4692;SDS011;11710;48.024;16.296;2023-05-20T16:07:40;11.70;;;10.17;;
4692;SDS011;11710;48.024;16.296;2023-05-20T16:10:08;12.60;;;11.30;;
4692;SDS011;11710;48.024;16.296;2023-05-20T16:12:37;12.50;;;10.80;;
4692;SDS011;11710;48.024;16.296;2023-05-20T16:15:06;13.03;;;11.73;;
4692;SDS011;11710;48.024;16.296;2023-05-20T16:17:35;12.83;;;11.47;;
4692;SDS011;11710;48.024;16.296;2023-05-20T16:20:02;12.30;;;10.90;;
4692;SDS011;11710;48.024;16.296;2023-05-20T16:22:31;11.97;;;10.77;;
4692;SDS011;11710;48.024;16.296;2023-05-20T16:24:59;11.60;;;10.40;;
4692;SDS011;11710;48.024;16.296;2023-05-20T16:27:27;14.43;;;10.93;;
4692;SDS011;11710;48.024;16.296;2023-05-20T16:29:55;15.43;;;10.93;;
4692;SDS011;11710;48.024;16.296;2023-05-20T16:32:22;13.27;;;10.70;;
4692;SDS011;11710;48.024;16.296;2023-05-20T16:34:51;11.70;;;10.50;;
4692;SDS011;11710;48.024;16.296;2023-05-20T16:37:18;14.73;;;10.53;;
4692;SDS011;11710;48.024;16.296;2023-05-20T16:39:46;15.07;;;10.97;;
4692;SDS011;11710;48.024;16.296;2023-05-20T16:42:13;13.40;;;11.00;;
4692;SDS011;11710;48.024;16.296;2023-05-20T16:44:40;11.20;;;10.20;;
4692;SDS011;11710;48.024;16.296;2023-05-20T16:47:09;15.67;;;11.00;;
4692;SDS011;11710;48.024;16.296;2023-05-20T16:49:36;12.07;;;10.83;;
4692;SDS011;11710;48.024;16.296;2023-05-20T16:52:04;12.17;;;10.80;;
4692;SDS011;11710;48.024;16.296;2023-05-20T16:54:32;12.90;;;11.20;;
4692;SDS011;11710;48.024;16.296;2023-05-20T16:57:00;12.47;;;11.17;;
4692;SDS011;11710;48.024;16.296;2023-05-20T16:59:27;12.00;;;10.70;;
4692;SDS011;11710;48.024;16.296;2023-05-20T17:01:55;12.20;;;10.87;;
4692;SDS011;11710;48.024;16.296;2023-05-20T17:04:24;12.27;;;11.00;;
4692;SDS011;11710;48.024;16.296;2023-05-20T17:06:51;12.53;;;11.23;;
4692;SDS011;11710;48.024;16.296;2023-05-20T17:09:20;13.23;;;11.77;;
4692;SDS011;11710;48.024;16.296;2023-05-20T17:11:48;11.47;;;10.27;;
4692;SDS011;11710;48.024;16.296;2023-05-20T17:14:17;13.00;;;10.97;;
4692;SDS011;11710;48.024;16.296;2023-05-20T17:16:44;11.90;;;10.73;;
4692;SDS011;11710;48.024;16.296;2023-05-20T17:19:11;13.57;;;11.63;;
4692;SDS011;11710;48.024;16.296;2023-05-20T17:21:40;12.03;;;10.73;;
4692;SDS011;11710;48.024;16.296;2023-05-20T17:24:08;14.10;;;11.57;;
4692;SDS011;11710;48.024;16.296;2023-05-20T17:26:35;15.00;;;10.80;;
4692;SDS011;11710;48.024;16.296;2023-05-20T17:29:02;17.47;;;12.43;;
4692;SDS011;11710;48.024;16.296;2023-05-20T17:31:30;14.27;;;12.00;;
4692;SDS011;11710;48.024;16.296;2023-05-20T17:33:57;30.67;;;11.83;;
4692;SDS011;11710;48.024;16.296;2023-05-20T17:36:24;17.20;;;11.60;;
4692;SDS011;11710;48.024;16.296;2023-05-20T17:38:53;13.10;;;11.53;;
4692;SDS011;11710;48.024;16.296;2023-05-20T17:41:20;15.80;;;12.07;;
4692;SDS011;11710;48.024;16.296;2023-05-20T17:43:47;13.90;;;11.50;;
4692;SDS011;11710;48.024;16.296;2023-05-20T17:46:15;15.17;;;11.83;;
4692;SDS011;11710;48.024;16.296;2023-05-20T17:48:42;13.93;;;11.57;;
4692;SDS011;11710;48.024;16.296;2023-05-20T17:51:09;14.83;;;12.40;;
4692;SDS011;11710;48.024;16.296;2023-05-20T17:53:37;14.40;;;12.70;;
4692;SDS011;11710;48.024;16.296;2023-05-20T17:56:05;14.77;;;13.13;;
4692;SDS011;11710;48.024;16.296;2023-05-20T17:58:33;22.60;;;13.50;;
4692;SDS011;11710;48.024;16.296;2023-05-20T18:01:00;15.90;;;12.67;;
4692;SDS011;11710;48.024;16.296;2023-05-20T18:03:28;14.10;;;12.30;;
4692;SDS011;11710;48.024;16.296;2023-05-20T18:05:55;13.03;;;11.27;;
4692;SDS011;11710;48.024;16.296;2023-05-20T18:08:22;22.50;;;13.00;;
4692;SDS011;11710;48.024;16.296;2023-05-20T18:10:50;14.67;;;12.57;;
4692;SDS011;11710;48.024;16.296;2023-05-20T18:13:19;14.87;;;12.70;;
4692;SDS011;11710;48.024;16.296;2023-05-20T18:15:46;15.80;;;14.20;;
4692;SDS011;11710;48.024;16.296;2023-05-20T18:18:13;17.20;;;13.43;;
4692;SDS011;11710;48.024;16.296;2023-05-20T18:20:41;18.90;;;14.60;;
4692;SDS011;11710;48.024;16.296;2023-05-20T18:23:08;15.07;;;13.20;;
4692;SDS011;11710;48.024;16.296;2023-05-20T18:25:35;17.87;;;14.30;;
4692;SDS011;11710;48.024;16.296;2023-05-20T18:28:02;16.90;;;13.53;;
4692;SDS011;11710;48.024;16.296;2023-05-20T18:30:31;17.57;;;13.63;;
4692;SDS011;11710;48.024;16.296;2023-05-20T18:32:58;14.57;;;13.07;;
4692;SDS011;11710;48.024;16.296;2023-05-20T18:35:25;16.10;;;13.30;;
4692;SDS011;11710;48.024;16.296;2023-05-20T18:37:53;17.57;;;14.70;;
4692;SDS011;11710;48.024;16.296;2023-05-20T18:40:20;18.20;;;13.97;;
4692;SDS011;11710;48.024;16.296;2023-05-20T18:42:47;17.50;;;14.50;;
4692;SDS011;11710;48.024;16.296;2023-05-20T18:45:14;17.03;;;13.47;;
4692;SDS011;11710;48.024;16.296;2023-05-20T18:47:43;18.93;;;15.00;;
4692;SDS011;11710;48.024;16.296;2023-05-20T18:50:10;18.90;;;15.70;;
4692;SDS011;11710;48.024;16.296;2023-05-20T18:52:37;17.33;;;15.30;;
4692;SDS011;11710;48.024;16.296;2023-05-20T18:55:05;18.67;;;15.63;;
4692;SDS011;11710;48.024;16.296;2023-05-20T18:57:33;18.57;;;15.83;;
4692;SDS011;11710;48.024;16.296;2023-05-20T19:00:00;16.27;;;14.57;;
4692;SDS011;11710;48.024;16.296;2023-05-20T19:02:32;18.30;;;15.07;;
4692;SDS011;11710;48.024;16.296;2023-05-20T19:05:01;20.70;;;15.90;;
4692;SDS011;11710;48.024;16.296;2023-05-20T19:07:28;15.77;;;13.80;;
4692;SDS011;11710;48.024;16.296;2023-05-20T19:09:55;19.77;;;16.47;;
4692;SDS011;11710;48.024;16.296;2023-05-20T19:12:23;19.73;;;15.10;;
4692;SDS011;11710;48.024;16.296;2023-05-20T19:14:50;18.10;;;15.07;;
4692;SDS011;11710;48.024;16.296;2023-05-20T19:17:17;17.73;;;15.80;;
4692;SDS011;11710;48.024;16.296;2023-05-20T19:19:45;20.13;;;15.50;;
4692;SDS011;11710;48.024;16.296;2023-05-20T19:22:13;20.43;;;16.20;;
4692;SDS011;11710;48.024;16.296;2023-05-20T19:24:41;17.27;;;14.80;;
4692;SDS011;11710;48.024;16.296;2023-05-20T19:27:08;17.90;;;14.60;;
4692;SDS011;11710;48.024;16.296;2023-05-20T19:29:35;16.90;;;15.03;;
4692;SDS011;11710;48.024;16.296;2023-05-20T19:32:02;16.80;;;15.00;;
4692;SDS011;11710;48.024;16.296;2023-05-20T19:34:30;16.60;;;14.80;;
4692;SDS011;11710;48.024;16.296;2023-05-20T19:36:57;19.20;;;15.77;;
4692;SDS011;11710;48.024;16.296;2023-05-20T19:39:26;17.80;;;15.50;;
4692;SDS011;11710;48.024;16.296;2023-05-20T19:41:54;18.97;;;15.07;;
4692;SDS011;11710;48.024;16.296;2023-05-20T19:44:21;19.43;;;17.10;;
4692;SDS011;11710;48.024;16.296;2023-05-20T19:46:49;18.47;;;15.70;;
4692;SDS011;11710;48.024;16.296;2023-05-20T19:49:18;17.13;;;15.33;;
4692;SDS011;11710;48.024;16.296;2023-05-20T19:51:45;17.37;;;15.50;;
4692;SDS011;11710;48.024;16.296;2023-05-20T19:54:12;19.67;;;16.13;;
4692;SDS011;11710;48.024;16.296;2023-05-20T19:56:41;19.50;;;17.10;;
4692;SDS011;11710;48.024;16.296;2023-05-20T19:59:08;21.00;;;16.87;;
4692;SDS011;11710;48.024;16.296;2023-05-20T20:01:35;21.63;;;17.53;;
4692;SDS011;11710;48.024;16.296;2023-05-20T20:04:03;20.57;;;16.73;;
4692;SDS011;11710;48.024;16.296;2023-05-20T20:06:30;19.03;;;14.80;;
4692;SDS011;11710;48.024;16.296;2023-05-20T20:08:57;19.70;;;16.17;;
4692;SDS011;11710;48.024;16.296;2023-05-20T20:11:25;20.20;;;17.03;;
4692;SDS011;11710;48.024;16.296;2023-05-20T20:13:54;19.90;;;16.63;;
